Time;durP1;ratioP1;P1;durP2;ratioP2;P2;SDS_P1;SDS_P2;PMS_P1;PMS_P2;Temp;Humidity;BMP_temperature;BMP_pressure;BME280_temperature;BME280_humidity;BME280_pressure;Samples;Min_cycle;Max_cycle;Signal;HPM_P1;HPM_P2
2023/10/25 00:01:05;;;;;;;4.30;1.83;;;11.30;99.90;;;;;;5039805;28;20170;-86
2023/10/25 00:03:31;;;;;;;4.43;1.90;;;11.30;99.90;;;;;;5043004;28;20184;-87
2023/10/25 00:05:57;;;;;;;7.37;2.00;;;11.30;99.90;;;;;;5060036;28;20213;-86
2023/10/25 00:08:22;;;;;;;3.67;1.73;;;11.20;99.90;;;;;;5049293;28;20228;-84
2023/10/25 00:10:48;;;;;;;5.70;1.60;;;11.80;99.90;;;;;;5043254;28;20699;-83
2023/10/25 00:13:13;;;;;;;7.00;1.83;;;11.30;99.90;;;;;;5039510;28;20181;-83
2023/10/25 00:15:40;;;;;;;4.10;1.80;;;11.40;99.90;;;;;;5042005;28;20181;-85
2023/10/25 00:18:05;;;;;;;6.60;2.10;;;11.40;99.90;;;;;;5034812;28;20174;-86
2023/10/25 00:20:31;;;;;;;2.83;1.40;;;11.20;99.90;;;;;;5034894;28;20184;-85
2023/10/25 00:22:57;;;;;;;6.03;1.70;;;11.30;99.90;;;;;;5017406;28;20188;-87
2023/10/25 00:25:22;;;;;;;2.90;1.60;;;11.20;99.90;;;;;;5034816;28;20212;-85
2023/10/25 00:27:48;;;;;;;6.20;1.67;;;11.30;99.90;;;;;;5035113;28;20166;-85
2023/10/25 00:30:13;;;;;;;4.70;1.70;;;11.20;99.90;;;;;;5035176;28;20256;-86
2023/10/25 00:32:39;;;;;;;5.40;1.93;;;11.20;99.90;;;;;;5035264;28;20215;-84
2023/10/25 00:35:05;;;;;;;7.57;2.20;;;11.20;99.90;;;;;;5035211;28;20212;-83
2023/10/25 00:37:31;;;;;;;6.93;2.27;;;11.20;99.90;;;;;;5034964;28;20170;-83
2023/10/25 00:39:57;;;;;;;5.93;2.30;;;11.30;99.90;;;;;;5035858;28;20174;-83
2023/10/25 00:42:23;;;;;;;5.93;2.10;;;11.30;99.90;;;;;;5036467;28;20220;-83
2023/10/25 00:44:48;;;;;;;4.47;2.27;;;11.20;99.90;;;;;;5037148;28;20202;-83
2023/10/25 00:47:15;;;;;;;5.13;2.00;;;11.20;99.90;;;;;;5036898;28;20732;-84
2023/10/25 00:49:41;;;;;;;4.47;1.70;;;11.30;99.90;;;;;;5020191;28;20170;-84
2023/10/25 00:52:07;;;;;;;4.97;1.80;;;11.10;99.90;;;;;;5038584;28;20225;-84
2023/10/25 00:54:33;;;;;;;3.97;1.70;;;11.30;99.90;;;;;;5037697;28;20174;-86
2023/10/25 00:56:59;;;;;;;4.73;1.47;;;11.40;99.90;;;;;;5055626;28;20190;-86
2023/10/25 00:59:26;;;;;;;4.40;1.37;;;11.30;99.90;;;;;;5057377;28;20214;-83
2023/10/25 01:01:52;;;;;;;3.17;1.20;;;11.00;99.90;;;;;;5053376;28;20204;-84
2023/10/25 01:04:18;;;;;;;2.07;1.10;;;11.30;99.90;;;;;;5059010;28;20161;-83
2023/10/25 01:06:43;;;;;;;4.87;1.30;;;11.10;99.90;;;;;;5059130;28;20170;-84
2023/10/25 01:09:09;;;;;;;5.73;1.40;;;11.20;99.90;;;;;;5040564;28;20189;-84
2023/10/25 01:11:35;;;;;;;4.03;1.10;;;11.10;99.90;;;;;;5035322;28;20644;-84
2023/10/25 01:14:01;;;;;;;5.03;0.93;;;11.20;99.90;;;;;;5017704;28;20539;-84
2023/10/25 01:16:26;;;;;;;2.43;0.97;;;11.20;99.90;;;;;;5034661;28;20255;-84
2023/10/25 01:18:52;;;;;;;4.80;1.20;;;11.20;99.90;;;;;;5035097;28;20179;-83
2023/10/25 01:21:18;;;;;;;2.87;0.93;;;11.10;99.90;;;;;;5035026;28;20181;-84
2023/10/25 01:23:43;;;;;;;3.43;1.13;;;11.20;99.90;;;;;;5044704;28;20252;-82
2023/10/25 01:26:09;;;;;;;5.40;1.00;;;11.10;99.90;;;;;;5050986;28;20237;-83
2023/10/25 01:28:35;;;;;;;2.43;0.87;;;11.20;99.90;;;;;;5043048;28;20190;-84
2023/10/25 01:31:01;;;;;;;3.70;1.40;;;11.20;99.90;;;;;;5059206;28;20169;-84
2023/10/25 01:33:27;;;;;;;3.93;1.03;;;11.30;99.90;;;;;;5042524;28;20174;-85
2023/10/25 01:35:52;;;;;;;3.00;0.90;;;11.20;99.90;;;;;;5036447;28;20268;-85
2023/10/25 01:38:18;;;;;;;4.00;1.10;;;11.10;99.90;;;;;;5034764;28;20243;-85
2023/10/25 01:40:44;;;;;;;3.97;0.83;;;11.10;99.90;;;;;;5034527;28;20181;-85
2023/10/25 01:43:09;;;;;;;3.23;0.80;;;11.20;99.90;;;;;;5034761;28;20224;-84
2023/10/25 01:45:35;;;;;;;2.13;0.70;;;11.10;99.90;;;;;;5034625;28;20313;-84
2023/10/25 01:48:00;;;;;;;5.83;1.10;;;11.30;99.90;;;;;;5035055;28;20232;-86
2023/10/25 01:50:26;;;;;;;1.93;0.70;;;11.10;99.90;;;;;;5016477;28;20663;-86
2023/10/25 01:52:52;;;;;;;2.40;1.00;;;11.40;99.90;;;;;;5034330;28;20261;-87
2023/10/25 01:55:17;;;;;;;5.13;1.00;;;11.10;99.90;;;;;;5033658;28;20527;-85
2023/10/25 01:57:44;;;;;;;3.20;1.23;;;11.10;99.90;;;;;;5033211;28;20181;-83
2023/10/25 02:00:10;;;;;;;3.40;1.00;;;11.10;99.90;;;;;;5033378;28;20633;-83
2023/10/25 02:02:36;;;;;;;2.13;0.90;;;11.20;99.90;;;;;;5032621;28;20166;-84
2023/10/25 02:05:01;;;;;;;3.83;1.20;;;11.10;99.90;;;;;;5033088;28;20212;-84
2023/10/25 02:07:27;;;;;;;2.40;1.10;;;11.10;99.90;;;;;;5032736;28;20540;-85
2023/10/25 02:09:53;;;;;;;4.27;1.30;;;11.20;99.90;;;;;;5033258;28;20177;-85
2023/10/25 02:12:19;;;;;;;3.97;1.50;;;11.20;99.90;;;;;;5033092;28;20609;-86
2023/10/25 02:14:44;;;;;;;7.03;1.80;;;11.10;99.90;;;;;;5032888;28;20231;-85
2023/10/25 02:17:10;;;;;;;5.60;1.60;;;11.10;99.90;;;;;;5032918;28;20249;-82
2023/10/25 02:19:36;;;;;;;3.13;1.97;;;11.00;99.90;;;;;;5032756;28;20220;-86
2023/10/25 02:22:01;;;;;;;4.73;1.97;;;11.10;99.90;;;;;;5033134;28;20714;-86
2023/10/25 02:24:27;;;;;;;8.33;2.10;;;11.00;99.90;;;;;;5032895;28;20202;-87
2023/10/25 02:26:53;;;;;;;3.70;2.13;;;11.00;99.90;;;;;;5015534;28;20182;-88
2023/10/25 02:29:18;;;;;;;4.40;2.13;;;11.10;99.90;;;;;;5033264;28;20205;-89
2023/10/25 02:31:44;;;;;;;3.57;2.27;;;11.00;99.90;;;;;;5033384;28;20174;-88
2023/10/25 02:34:10;;;;;;;5.50;2.53;;;10.90;99.90;;;;;;5007548;28;20174;-89
2023/10/25 02:36:35;;;;;;;6.37;2.83;;;11.00;99.90;;;;;;5031521;28;20201;-89
2023/10/25 02:39:01;;;;;;;5.47;3.07;;;11.00;99.90;;;;;;5032734;28;20174;-88
2023/10/25 02:41:27;;;;;;;4.97;2.50;;;10.90;99.90;;;;;;5033153;28;20537;-89
2023/10/25 02:43:56;;;;;;;5.90;3.20;;;11.00;99.90;;;;;;5032956;28;20170;-89
2023/10/25 02:46:22;;;;;;;11.17;3.60;;;11.20;99.90;;;;;;5014539;28;20251;-89
2023/10/25 02:48:50;;;;;;;7.77;2.77;;;11.20;99.90;;;;;;5032874;28;20178;-88
2023/10/25 02:51:16;;;;;;;4.20;2.63;;;11.00;99.90;;;;;;5032352;28;20200;-84
2023/10/25 02:53:41;;;;;;;4.90;2.83;;;10.90;99.90;;;;;;5032144;28;20636;-85
2023/10/25 02:56:07;;;;;;;5.93;2.57;;;10.90;99.90;;;;;;5014475;28;20178;-86
2023/10/25 02:58:34;;;;;;;6.20;2.60;;;11.00;99.90;;;;;;5031992;28;20170;-85
2023/10/25 03:01:00;;;;;;;6.17;2.60;;;10.90;99.90;;;;;;5032642;28;20616;-85
2023/10/25 03:03:33;;;;;;;5.83;2.90;;;10.90;99.90;;;;;;5031686;28;20178;-86
2023/10/25 03:05:59;;;;;;;4.53;2.30;;;10.90;99.90;;;;;;5014347;28;20213;-84
2023/10/25 03:08:27;;;;;;;4.93;2.37;;;10.90;99.90;;;;;;5031907;28;20176;-86
2023/10/25 03:10:54;;;;;;;6.70;2.47;;;10.90;99.90;;;;;;5032151;28;20178;-85
2023/10/25 03:13:20;;;;;;;7.00;2.63;;;10.80;99.90;;;;;;5031732;28;20550;-86
2023/10/25 03:15:45;;;;;;;5.50;2.50;;;10.90;99.90;;;;;;5032022;28;20666;-86
2023/10/25 03:18:11;;;;;;;4.73;2.40;;;10.90;99.90;;;;;;5031938;28;20264;-89
2023/10/25 03:20:37;;;;;;;4.03;2.33;;;10.90;99.90;;;;;;5032698;28;20210;-89
2023/10/25 03:23:03;;;;;;;4.27;2.60;;;10.80;99.90;;;;;;5015225;28;20208;-90
2023/10/25 03:25:28;;;;;;;9.27;2.73;;;10.80;99.90;;;;;;5032947;28;20252;-89
2023/10/25 03:27:54;;;;;;;7.60;2.50;;;10.50;99.90;;;;;;5015804;28;20177;-89
2023/10/25 03:30:19;;;;;;;4.20;2.43;;;10.80;99.90;;;;;;5032905;28;20672;-90
2023/10/25 03:32:45;;;;;;;6.60;2.53;;;10.90;99.90;;;;;;5033210;28;20213;-90
2023/10/25 03:35:11;;;;;;;9.03;3.10;;;10.80;99.90;;;;;;5033511;28;20261;-90
2023/10/25 03:37:39;;;;;;;4.10;2.20;;;10.90;99.90;;;;;;5033206;28;20684;-91
2023/10/25 03:40:14;;;;;;;6.90;2.40;;;10.80;99.90;;;;;;5033515;28;20252;-90
2023/10/25 03:42:40;;;;;;;9.23;2.50;;;10.80;99.90;;;;;;5033243;28;20267;-90
2023/10/25 03:45:06;;;;;;;5.23;2.97;;;10.90;99.90;;;;;;5033558;28;20288;-90
2023/10/25 03:47:37;;;;;;;10.27;2.73;;;10.90;99.90;;;;;;5027075;28;20249;-90
2023/10/25 03:50:06;;;;;;;7.20;2.80;;;10.90;99.90;;;;;;5032482;28;20186;-90
2023/10/25 03:52:33;;;;;;;6.30;2.57;;;10.80;99.90;;;;;;5034447;28;20178;-89
2023/10/25 03:54:58;;;;;;;6.83;2.77;;;10.90;99.90;;;;;;5056092;28;20162;-88
2023/10/25 03:57:24;;;;;;;5.50;2.73;;;11.00;99.90;;;;;;5045317;28;20212;-89
2023/10/25 03:59:50;;;;;;;5.67;2.60;;;11.50;99.90;;;;;;5016902;28;20170;-89
2023/10/25 04:02:16;;;;;;;7.67;2.97;;;10.80;99.90;;;;;;5034209;28;20340;-88
2023/10/25 04:04:41;;;;;;;6.97;2.87;;;10.80;99.90;;;;;;5032924;28;20202;-88
2023/10/25 04:07:08;;;;;;;7.57;3.00;;;10.60;99.90;;;;;;5032799;28;20193;-89
2023/10/25 04:09:33;;;;;;;6.33;2.90;;;10.90;99.90;;;;;;5014471;28;20170;-89
2023/10/25 04:11:59;;;;;;;6.17;2.93;;;10.90;99.90;;;;;;5028754;28;20175;-89
2023/10/25 04:14:24;;;;;;;8.30;3.53;;;10.90;99.90;;;;;;5051081;28;20197;-88
2023/10/25 04:16:50;;;;;;;6.97;3.60;;;10.80;99.90;;;;;;5036166;28;20170;-89
2023/10/25 04:19:15;;;;;;;6.03;3.70;;;10.90;99.90;;;;;;5032270;28;20185;-87
2023/10/25 04:21:41;;;;;;;5.93;3.73;;;10.80;99.90;;;;;;5013599;28;20585;-87
2023/10/25 04:24:07;;;;;;;9.20;3.90;;;10.70;99.90;;;;;;5031174;28;20193;-88
2023/10/25 04:26:33;;;;;;;7.20;4.57;;;10.70;99.90;;;;;;5033652;28;20209;-88
2023/10/25 04:28:58;;;;;;;6.03;4.33;;;10.80;99.90;;;;;;5016684;28;20181;-88
2023/10/25 04:31:25;;;;;;;6.97;4.30;;;10.80;99.90;;;;;;5034712;28;20174;-88
2023/10/25 04:33:51;;;;;;;8.60;4.20;;;10.70;99.90;;;;;;5034388;28;20778;-87
2023/10/25 04:36:17;;;;;;;7.53;4.57;;;;;;;;;;5034568;28;20170;-88
2023/10/25 04:38:43;;;;;;;9.73;4.73;;;9.70;99.90;;;;;;5034794;28;20273;-87
2023/10/25 04:41:09;;;;;;;8.47;4.67;;;;;;;;;;5034560;28;20224;-86
2023/10/25 04:43:35;;;;;;;7.10;4.37;;;10.70;99.90;;;;;;5034471;28;20587;-87
2023/10/25 04:46:00;;;;;;;7.10;4.53;;;10.70;99.90;;;;;;5017167;28;20219;-89
2023/10/25 04:48:26;;;;;;;9.30;4.80;;;10.30;99.90;;;;;;4996235;28;1191003;-90
2023/10/25 04:50:52;;;;;;;9.83;5.40;;;10.60;99.90;;;;;;5038279;28;20663;-91
2023/10/25 04:53:17;;;;;;;7.57;4.37;;;10.60;99.90;;;;;;5037269;28;20174;-91
2023/10/25 04:55:46;;;;;;;8.27;4.40;;;10.60;99.90;;;;;;5037228;28;20216;-90
2023/10/25 04:58:12;;;;;;;7.77;4.80;;;10.70;99.90;;;;;;5035747;28;20264;-90
2023/10/25 05:00:38;;;;;;;7.60;5.20;;;10.50;99.90;;;;;;5035322;28;20652;-91
2023/10/25 05:03:10;;;;;;;7.20;5.07;;;10.50;99.90;;;;;;5036037;28;20189;-91
2023/10/25 05:05:37;;;;;;;7.67;5.13;;;10.60;99.90;;;;;;5035769;28;20217;-90
2023/10/25 05:08:03;;;;;;;15.40;5.23;;;10.70;99.90;;;;;;5035789;28;20559;-90
2023/10/25 05:10:30;;;;;;;7.43;5.23;;;10.70;99.90;;;;;;5035211;28;20166;-90
2023/10/25 05:12:56;;;;;;;9.90;5.17;;;10.60;99.90;;;;;;5035330;28;20714;-90
2023/10/25 05:15:23;;;;;;;9.57;5.60;;;10.60;99.90;;;;;;5035055;28;20205;-90
2023/10/25 05:17:49;;;;;;;8.17;5.77;;;10.60;99.90;;;;;;5018160;28;20178;-91
2023/10/25 05:20:15;;;;;;;9.40;5.37;;;10.50;99.90;;;;;;5034900;28;20180;-91
2023/10/25 05:22:45;;;;;;;9.40;5.37;;;10.50;99.90;;;;;;5035139;28;20174;-86
2023/10/25 05:25:11;;;;;;;8.90;5.83;;;10.50;99.90;;;;;;5034100;28;20205;-82
2023/10/25 05:27:37;;;;;;;11.30;5.60;;;10.50;99.90;;;;;;5034110;28;20171;-86
2023/10/25 05:30:05;;;;;;;10.47;6.40;;;10.50;99.90;;;;;;5033890;28;20186;-86
2023/10/25 05:32:32;;;;;;;9.57;5.67;;;10.60;99.90;;;;;;5033760;28;20177;-86
2023/10/25 05:35:00;;;;;;;11.43;6.03;;;10.50;99.90;;;;;;5034309;28;20910;-86
2023/10/25 05:37:27;;;;;;;9.50;5.80;;;10.50;99.90;;;;;;5033023;28;20182;-86
2023/10/25 05:39:53;;;;;;;10.07;5.80;;;10.50;99.90;;;;;;5034100;28;20328;-86
2023/10/25 05:42:19;;;;;;;8.60;5.37;;;10.50;99.90;;;;;;5034601;28;20656;-87
2023/10/25 05:44:51;;;;;;;9.73;5.07;;;10.50;99.90;;;;;;5033787;28;20198;-86
2023/10/25 05:47:17;;;;;;;10.80;6.00;;;10.50;99.90;;;;;;5033906;28;20225;-86
2023/10/25 05:49:43;;;;;;;8.27;5.40;;;10.50;99.90;;;;;;5016043;28;20232;-87
2023/10/25 05:52:10;;;;;;;13.10;5.83;;;10.50;99.90;;;;;;5034145;28;20162;-87
2023/10/25 05:54:36;;;;;;;8.97;5.70;;;10.50;99.90;;;;;;5034311;28;20202;-87
2023/10/25 05:57:03;;;;;;;10.03;5.73;;;10.50;99.90;;;;;;5033816;28;20178;-87
2023/10/25 05:59:29;;;;;;;8.17;5.40;;;;;;;;;;5034644;28;20170;-87
2023/10/25 06:01:58;;;;;;;10.50;5.50;;;10.50;99.90;;;;;;5034338;28;20782;-88
2023/10/25 06:04:27;;;;;;;10.10;5.60;;;10.50;99.90;;;;;;5033955;28;20174;-85
2023/10/25 06:06:52;;;;;;;10.37;5.53;;;10.50;99.90;;;;;;5034054;28;20206;-87
2023/10/25 06:09:18;;;;;;;12.23;5.60;;;10.50;99.90;;;;;;5034092;28;20181;-85
2023/10/25 06:11:44;;;;;;;9.67;5.70;;;10.50;99.90;;;;;;5033669;28;20174;-85
2023/10/25 06:14:10;;;;;;;7.83;5.23;;;10.50;99.90;;;;;;5016608;28;20182;-86
2023/10/25 06:16:36;;;;;;;9.97;5.20;;;10.50;99.90;;;;;;5034662;28;20170;-88
2023/10/25 06:19:01;;;;;;;10.80;5.33;;;10.40;99.90;;;;;;5048268;28;20174;-86
2023/10/25 06:21:27;;;;;;;9.60;5.13;;;10.50;99.90;;;;;;5057905;28;20170;-86
2023/10/25 06:23:53;;;;;;;11.53;5.70;;;10.50;99.90;;;;;;5036599;28;20185;-86
2023/10/25 06:26:19;;;;;;;8.30;5.60;;;10.50;99.90;;;;;;5034752;28;20686;-86
2023/10/25 06:28:45;;;;;;;11.10;5.67;;;10.40;99.90;;;;;;5033763;28;20170;-89
2023/10/25 06:31:12;;;;;;;9.97;6.30;;;10.40;99.90;;;;;;5034548;28;20178;-88
2023/10/25 06:33:37;;;;;;;12.87;6.77;;;10.40;99.90;;;;;;5034267;28;20175;-83
2023/10/25 06:36:03;;;;;;;11.53;6.73;;;10.40;99.90;;;;;;5033815;28;20185;-83
2023/10/25 06:38:29;;;;;;;11.67;7.23;;;10.40;99.90;;;;;;5037991;28;20178;-82
2023/10/25 06:40:56;;;;;;;12.10;7.80;;;10.40;99.90;;;;;;5046551;28;20189;-81
2023/10/25 06:43:22;;;;;;;17.80;8.93;;;;;;;;;;5022821;28;20194;-80
2023/10/25 06:45:48;;;;;;;17.07;9.07;;;10.60;99.90;;;;;;5035007;28;20221;-83
2023/10/25 06:48:14;;;;;;;15.83;8.77;;;10.40;99.90;;;;;;5047627;28;20232;-80
2023/10/25 06:50:43;;;;;;;18.53;9.93;;;10.40;99.90;;;;;;5049273;28;20230;-80
2023/10/25 06:53:08;;;;;;;16.13;9.43;;;10.40;99.90;;;;;;5033355;28;20181;-81
2023/10/25 06:55:34;;;;;;;17.10;10.23;;;10.40;99.90;;;;;;5035905;28;20178;-80
2023/10/25 06:58:00;;;;;;;15.83;9.73;;;10.40;99.90;;;;;;5032624;28;20260;-80
2023/10/25 07:00:26;;;;;;;23.40;11.47;;;10.30;99.90;;;;;;5016294;28;20178;-78
2023/10/25 07:02:53;;;;;;;24.27;12.07;;;10.50;99.90;;;;;;5032894;28;20729;-81
2023/10/25 07:05:21;;;;;;;24.03;13.50;;;10.40;99.90;;;;;;5032513;28;20244;-79
2023/10/25 07:07:52;;;;;;;25.10;13.70;;;10.40;99.90;;;;;;5032292;28;20644;-78
2023/10/25 07:10:19;;;;;;;24.10;13.27;;;10.40;99.90;;;;;;5040565;28;20257;-79
2023/10/25 07:12:45;;;;;;;27.20;13.57;;;10.30;99.90;;;;;;5041501;28;20174;-78
2023/10/25 07:15:11;;;;;;;26.70;13.57;;;10.40;99.90;;;;;;5032645;28;20324;-81
2023/10/25 07:17:38;;;;;;;25.70;14.30;;;10.40;99.90;;;;;;5039986;28;20198;-80
2023/10/25 07:20:05;;;;;;;27.47;14.27;;;10.40;99.90;;;;;;5041160;28;20269;-81
2023/10/25 07:22:31;;;;;;;27.23;14.30;;;10.50;99.90;;;;;;5036078;28;20174;-82
2023/10/25 07:24:57;;;;;;;26.70;15.33;;;10.40;99.90;;;;;;5016164;28;20263;-83
2023/10/25 07:27:23;;;;;;;28.87;15.23;;;10.50;99.90;;;;;;5033704;28;20176;-82
2023/10/25 07:29:49;;;;;;;30.47;15.17;;;10.50;99.90;;;;;;5032632;28;20174;-82
2023/10/25 07:32:15;;;;;;;32.00;15.70;;;10.50;99.90;;;;;;5034844;28;20174;-81
2023/10/25 07:34:42;;;;;;;29.93;15.47;;;10.40;99.90;;;;;;5054210;28;20178;-85
2023/10/25 07:37:08;;;;;;;27.07;15.30;;;10.40;99.90;;;;;;5053221;28;20221;-85
2023/10/25 07:39:34;;;;;;;28.77;15.83;;;10.50;99.90;;;;;;5045106;28;20193;-84
2023/10/25 07:42:01;;;;;;;31.93;15.97;;;10.50;99.90;;;;;;5034183;28;20178;-84
2023/10/25 07:44:29;;;;;;;30.63;15.73;;;10.60;99.90;;;;;;5032798;28;20194;-85
2023/10/25 07:46:55;;;;;;;28.33;15.73;;;10.50;99.90;;;;;;5037940;28;20233;-84
2023/10/25 07:49:21;;;;;;;29.47;15.77;;;10.50;99.90;;;;;;5032369;28;20184;-83
2023/10/25 07:51:47;;;;;;;27.13;14.80;;;10.60;99.90;;;;;;5034183;28;20237;-85
2023/10/25 07:54:12;;;;;;;28.10;15.33;;;10.50;99.90;;;;;;5033036;28;20193;-85
2023/10/25 07:56:38;;;;;;;29.47;15.20;;;10.60;99.90;;;;;;5031674;28;20181;-80
2023/10/25 07:59:03;;;;;;;29.33;15.67;;;10.70;99.90;;;;;;5014863;28;20218;-84
2023/10/25 08:01:29;;;;;;;30.90;15.40;;;10.70;99.90;;;;;;5036734;28;20224;-85
2023/10/25 08:03:55;;;;;;;28.07;15.67;;;10.80;99.90;;;;;;5037956;28;20683;-82
2023/10/25 08:06:21;;;;;;;28.40;15.60;;;10.70;99.90;;;;;;5036282;28;20224;-82
2023/10/25 08:08:49;;;;;;;29.30;14.47;;;10.70;99.90;;;;;;5036182;28;20170;-83
2023/10/25 08:11:15;;;;;;;29.00;15.40;;;10.80;99.90;;;;;;5034613;28;20178;-82
2023/10/25 08:13:42;;;;;;;30.73;15.87;;;10.60;99.90;;;;;;5035748;28;20185;-81
2023/10/25 08:16:08;;;;;;;31.73;15.83;;;10.70;99.90;;;;;;5029671;28;20185;-82
2023/10/25 08:18:35;;;;;;;30.63;15.97;;;10.80;99.90;;;;;;5034935;28;20315;-78
2023/10/25 08:21:01;;;;;;;31.67;16.00;;;11.00;99.90;;;;;;5037375;28;20378;-80
2023/10/25 08:23:27;;;;;;;31.30;15.70;;;11.00;99.90;;;;;;5034303;28;20195;-81
2023/10/25 08:25:52;;;;;;;28.70;15.37;;;10.80;99.90;;;;;;5016257;28;20217;-80
2023/10/25 08:28:18;;;;;;;32.57;14.77;;;10.90;99.90;;;;;;5016348;28;20189;-77
2023/10/25 08:30:44;;;;;;;26.37;14.60;;;10.80;99.90;;;;;;5029245;28;20260;-78
2023/10/25 08:33:12;;;;;;;29.00;14.90;;;11.00;99.90;;;;;;5034482;28;20162;-78
2023/10/25 08:35:38;;;;;;;28.83;14.83;;;10.90;99.90;;;;;;5034302;28;20178;-79
2023/10/25 08:38:05;;;;;;;26.60;14.43;;;10.90;99.90;;;;;;5016464;28;20256;-79
2023/10/25 08:40:31;;;;;;;29.97;14.57;;;10.90;99.90;;;;;;5034598;28;20181;-78
2023/10/25 08:43:01;;;;;;;28.77;15.40;;;11.00;99.90;;;;;;5015903;28;20185;-78
2023/10/25 08:45:28;;;;;;;26.63;14.60;;;10.90;99.90;;;;;;5033703;28;20213;-81
2023/10/25 08:47:54;;;;;;;28.70;14.17;;;10.90;99.90;;;;;;5034211;28;20214;-82
2023/10/25 08:50:20;;;;;;;24.83;14.30;;;11.00;99.90;;;;;;5039256;28;20177;-82
2023/10/25 08:52:49;;;;;;;24.97;14.97;;;11.00;99.90;;;;;;5052310;28;20205;-81
2023/10/25 08:55:18;;;;;;;27.77;14.33;;;11.00;99.90;;;;;;5018410;28;20203;-81
2023/10/25 08:57:43;;;;;;;25.37;13.93;;;11.00;99.90;;;;;;5034550;28;20236;-81
2023/10/25 09:00:13;;;;;;;25.23;13.67;;;11.00;99.90;;;;;;5033818;28;20166;-80
2023/10/25 09:02:39;;;;;;;26.47;14.43;;;11.00;99.90;;;;;;5033638;28;20240;-81
2023/10/25 09:05:09;;;;;;;24.10;14.80;;;11.00;99.90;;;;;;5033235;28;20252;-78
2023/10/25 09:07:36;;;;;;;25.43;14.67;;;11.00;99.90;;;;;;5033334;28;20698;-79
2023/10/25 09:10:15;;;;;;;23.23;13.60;;;11.00;99.90;;;;;;5033650;28;20174;-79
2023/10/25 09:12:41;;;;;;;23.63;14.20;;;11.00;99.90;;;;;;5033160;28;20710;-80
2023/10/25 09:15:07;;;;;;;22.27;14.50;;;11.20;99.90;;;;;;5033459;28;20182;-81
2023/10/25 09:17:34;;;;;;;26.33;14.10;;;11.30;99.90;;;;;;5033525;28;20178;-80
2023/10/25 09:20:00;;;;;;;22.80;13.57;;;11.50;99.90;;;;;;5033805;28;20181;-84
2023/10/25 09:22:28;;;;;;;21.67;13.57;;;11.50;99.90;;;;;;5015910;28;20174;-83
2023/10/25 09:24:55;;;;;;;23.10;13.53;;;12.00;99.90;;;;;;5033566;28;20288;-82
2023/10/25 09:27:23;;;;;;;22.90;12.67;;;12.20;99.90;;;;;;5033238;28;20166;-82
2023/10/25 09:29:50;;;;;;;23.52;13.43;;;12.30;99.90;;;;;;5033186;28;20636;-81
2023/10/25 09:32:17;;;;;;;23.70;12.93;;;12.20;99.90;;;;;;5033436;28;20170;-83
2023/10/25 09:34:44;;;;;;;23.17;13.13;;;12.10;99.90;;;;;;5033197;28;20181;-85
2023/10/25 09:37:11;;;;;;;23.20;13.25;;;12.10;99.90;;;;;;5033598;28;20166;-83
2023/10/25 09:39:37;;;;;;;24.45;13.00;;;12.20;99.90;;;;;;5034903;28;20186;-78
2023/10/25 09:42:06;;;;;;;22.55;13.10;;;12.30;99.90;;;;;;5034219;28;20236;-81
2023/10/25 09:44:38;;;;;;;21.97;12.60;;;12.20;99.90;;;;;;5035605;28;20174;-81
2023/10/25 09:47:10;;;;;;;21.20;12.55;;;12.20;99.90;;;;;;5034434;28;20226;-83
2023/10/25 09:49:39;;;;;;;20.93;12.80;;;12.30;99.90;;;;;;5016369;28;20180;-83
2023/10/25 09:52:18;;;;;;;24.45;13.75;;;12.30;99.90;;;;;;5033831;28;20204;-82
2023/10/25 09:54:50;;;;;;;18.15;11.98;;;12.40;99.90;;;;;;5034449;28;20174;-82
2023/10/25 09:57:17;;;;;;;17.13;11.83;;;12.50;99.90;;;;;;5033164;28;20177;-80
2023/10/25 09:59:44;;;;;;;17.95;11.15;;;12.80;99.90;;;;;;5033944;28;20178;-81
2023/10/25 10:02:18;;;;;;;19.55;12.18;;;12.80;99.90;;;;;;5017883;28;20662;-80
2023/10/25 10:05:01;;;;;;;20.55;11.60;;;12.80;99.90;;;;;;5042203;28;20363;-80
2023/10/25 10:07:55;;;;;;;19.35;11.75;;;13.00;99.90;;;;;;5035610;28;20200;-83
2023/10/25 10:10:22;;;;;;;16.67;10.80;;;13.00;99.90;;;;;;5032464;28;20715;-85
2023/10/25 10:12:48;;;;;;;17.67;10.25;;;12.80;99.90;;;;;;5033760;28;20260;-85
2023/10/25 10:15:14;;;;;;;19.75;10.38;;;12.90;99.90;;;;;;5033920;28;20224;-86
2023/10/25 10:17:43;;;;;;;20.48;10.25;;;12.70;99.90;;;;;;5034081;28;20166;-84
2023/10/25 10:20:24;;;;;;;16.25;10.00;;;12.80;99.90;;;;;;5033867;28;20178;-84
2023/10/25 10:23:03;;;;;;;21.00;11.00;;;12.80;99.90;;;;;;5034533;28;20637;-82
2023/10/25 10:25:50;;;;;;;18.20;9.70;;;12.90;99.90;;;;;;5032886;28;20220;-83
2023/10/25 10:28:35;;;;;;;18.85;10.07;;;12.90;99.90;;;;;;5033448;28;20212;-84
2023/10/25 10:31:01;;;;;;;19.80;9.20;;;12.70;99.90;;;;;;5032822;28;20231;-83
2023/10/25 10:33:26;;;;;;;17.30;10.15;;;12.60;99.90;;;;;;5033349;28;20257;-85
2023/10/25 10:35:52;;;;;;;17.15;8.77;;;12.70;99.90;;;;;;5032785;28;20279;-85
2023/10/25 10:38:18;;;;;;;14.50;8.93;;;12.60;99.90;;;;;;5032911;28;20170;-82
2023/10/25 10:40:50;;;;;;;16.00;8.90;;;12.70;99.90;;;;;;5033392;28;20166;-83
2023/10/25 10:43:16;;;;;;;15.95;9.15;;;12.70;99.90;;;;;;5033917;28;20193;-82
2023/10/25 10:45:44;;;;;;;16.05;8.20;;;12.70;99.90;;;;;;5033543;28;20300;-84
2023/10/25 10:48:22;;;;;;;12.70;7.80;;;12.60;99.90;;;;;;5018085;28;20232;-82
2023/10/25 10:50:49;;;;;;;15.20;8.32;;;12.80;99.90;;;;;;5036269;28;20177;-82
2023/10/25 10:53:15;;;;;;;13.30;7.25;;;13.10;99.90;;;;;;5036529;28;20178;-83
2023/10/25 10:55:40;;;;;;;14.27;7.72;;;13.20;99.90;;;;;;5036266;28;20691;-84
2023/10/25 10:58:07;;;;;;;16.00;7.57;;;13.10;99.90;;;;;;5017567;28;20170;-82
2023/10/25 11:00:33;;;;;;;11.63;6.93;;;13.10;99.90;;;;;;5035357;28;20189;-84
2023/10/25 11:03:02;;;;;;;14.85;7.45;;;13.20;99.90;;;;;;5037638;28;20178;-83
2023/10/25 11:05:29;;;;;;;14.15;6.82;;;13.20;99.90;;;;;;5029975;28;20206;-82
2023/10/25 11:07:55;;;;;;;14.45;6.95;;;13.10;99.90;;;;;;5016066;28;20542;-84
2023/10/25 11:10:21;;;;;;;12.77;6.57;;;13.20;99.90;;;;;;5033797;28;20165;-84
2023/10/25 11:12:46;;;;;;;13.55;6.80;;;13.20;99.90;;;;;;5035505;28;20177;-84
2023/10/25 11:15:13;;;;;;;15.43;6.85;;;13.10;99.90;;;;;;5033999;28;20644;-82
2023/10/25 11:17:39;;;;;;;18.17;7.15;;;13.00;99.90;;;;;;5055716;28;20165;-80
2023/10/25 11:20:06;;;;;;;15.80;7.20;;;13.10;99.90;;;;;;5054826;28;20193;-84
2023/10/25 11:22:32;;;;;;;15.02;7.50;;;13.20;99.90;;;;;;5050115;28;20695;-82
2023/10/25 11:24:59;;;;;;;12.65;7.13;;;13.30;99.90;;;;;;5048855;28;20205;-82
2023/10/25 11:27:35;;;;;;;14.75;7.25;;;13.20;99.90;;;;;;5048728;28;20273;-83
2023/10/25 11:30:01;;;;;;;9.88;6.32;;;13.30;99.90;;;;;;5039357;28;20169;-80
2023/10/25 11:32:31;;;;;;;12.23;7.13;;;13.60;99.90;;;;;;5038425;28;20645;-83
2023/10/25 11:34:58;;;;;;;11.43;7.13;;;13.60;99.90;;;;;;5034711;28;20624;-83
2023/10/25 11:37:39;;;;;;;13.02;7.05;;;13.90;99.90;;;;;;5040748;28;20197;-83
2023/10/25 11:40:06;;;;;;;11.35;6.40;;;14.40;99.90;;;;;;5019485;28;20196;-82
2023/10/25 11:42:32;;;;;;;13.90;6.47;;;14.50;99.90;;;;;;5032991;28;20173;-83
2023/10/25 11:45:05;;;;;;;10.80;6.60;;;14.70;99.90;;;;;;5031519;28;20205;-84
2023/10/25 11:47:32;;;;;;;11.57;5.63;;;14.70;99.90;;;;;;5033014;28;20213;-85
2023/10/25 11:50:03;;;;;;;11.05;5.65;;;14.70;99.90;;;;;;5032306;28;20178;-81
2023/10/25 11:52:30;;;;;;;12.88;6.30;;;14.70;99.90;;;;;;5035006;28;20170;-82
2023/10/25 11:54:58;;;;;;;12.05;6.65;;;14.60;99.90;;;;;;5034905;28;20173;-84
2023/10/25 11:57:25;;;;;;;8.90;5.78;;;17.40;99.90;;;;;;5033149;28;20260;-83
2023/10/25 11:59:51;;;;;;;13.10;5.63;;;17.60;99.90;;;;;;5033735;28;20186;-84
2023/10/25 12:02:21;;;;;;;9.43;5.63;;;17.00;99.90;;;;;;5033709;28;20181;-82
2023/10/25 12:04:47;;;;;;;11.63;6.05;;;20.20;99.90;;;;;;4999972;28;20237;-84
2023/10/25 12:07:13;;;;;;;10.77;6.10;;;22.00;99.90;;;;;;5003836;28;20177;-83
2023/10/25 12:09:41;;;;;;;8.80;5.30;;;20.30;99.90;;;;;;5047332;28;20178;-84
2023/10/25 12:12:07;;;;;;;8.27;5.20;;;22.50;99.90;;;;;;5036884;28;20173;-85
2023/10/25 12:14:32;;;;;;;10.07;6.22;;;24.10;99.90;;;;;;5043746;28;20243;-87
2023/10/25 12:16:58;;;;;;;8.48;4.60;;;24.20;99.90;;;;;;5038214;28;20250;-85
2023/10/25 12:19:24;;;;;;;8.52;5.25;;;25.20;99.90;;;;;;5035288;28;20201;-83
2023/10/25 12:21:56;;;;;;;8.30;4.70;;;25.70;99.90;;;;;;5051787;28;20162;-88
2023/10/25 12:24:25;;;;;;;7.63;4.68;;;26.40;99.90;;;;;;5054675;28;20192;-83
2023/10/25 12:26:51;;;;;;;9.18;4.80;;;26.70;99.90;;;;;;5032397;28;20209;-85
2023/10/25 12:29:17;;;;;;;7.15;4.90;;;26.90;99.90;;;;;;5034439;28;20170;-84
2023/10/25 12:31:44;;;;;;;8.15;4.60;;;26.40;99.90;;;;;;5031286;28;20188;-80
2023/10/25 12:34:10;;;;;;;9.13;4.70;;;27.00;99.90;;;;;;5031780;28;20205;-84
2023/10/25 12:36:36;;;;;;;9.13;5.30;;;27.50;1.10;;;;;;5031720;28;20186;-83
2023/10/25 12:39:01;;;;;;;9.10;5.65;;;27.90;1.00;;;;;;5031088;28;20221;-83